createdAt,value
2017-11-24T00:00:16.837Z,94337.91
2017-11-24T00:02:45.216Z,94345.70
2017-11-24T00:05:13.564Z,94350.77
2017-11-24T00:07:41.913Z,94345.63
2017-11-24T00:10:10.249Z,94342.33
2017-11-24T00:12:38.604Z,94335.22
2017-11-24T00:15:06.976Z,94333.96
2017-11-24T00:17:35.324Z,94333.93
2017-11-24T00:20:03.664Z,94325.00
2017-11-24T00:22:32.003Z,94324.33
2017-11-24T00:25:00.344Z,94312.83
2017-11-24T00:27:28.724Z,94311.00
2017-11-24T00:29:57.066Z,94307.37
2017-11-24T00:32:25.403Z,94330.17
2017-11-24T00:34:53.744Z,94332.09
2017-11-24T00:37:22.092Z,94323.06
2017-11-24T00:39:50.489Z,94328.24
2017-11-24T00:42:18.838Z,94328.84
2017-11-24T00:44:47.212Z,94331.83
2017-11-24T00:47:15.544Z,94329.34
2017-11-24T00:49:43.876Z,94321.78
2017-11-24T00:52:12.214Z,94308.44
2017-11-24T00:54:40.554Z,94312.80
2017-11-24T00:57:08.921Z,94312.69
2017-11-24T00:59:37.252Z,94308.56
2017-11-24T01:02:05.601Z,94313.05
2017-11-24T01:04:33.937Z,94316.07
2017-11-24T01:07:02.279Z,94325.55
2017-11-24T01:09:30.667Z,94324.98
2017-11-24T01:11:59.012Z,94316.20
2017-11-24T01:14:27.376Z,94317.21
2017-11-24T01:16:55.710Z,94324.41
2017-11-24T01:19:24.048Z,94328.42
2017-11-24T01:21:52.416Z,94327.05
2017-11-24T01:24:20.747Z,94310.06
2017-11-24T01:26:49.079Z,94302.30
2017-11-24T01:29:17.428Z,94313.99
2017-11-24T01:31:45.803Z,94314.87
2017-11-24T01:34:14.152Z,94320.89
2017-11-24T01:36:42.518Z,94320.96
2017-11-24T01:39:10.873Z,94314.87
2017-11-24T01:41:39.207Z,94314.87
2017-11-24T01:44:07.554Z,94313.52
2017-11-24T01:46:36.051Z,94310.52
2017-11-24T01:49:04.383Z,94312.70
2017-11-24T01:51:32.724Z,94310.21
2017-11-24T01:54:01.060Z,94300.33
2017-11-24T01:56:29.413Z,94296.98
2017-11-24T01:58:57.782Z,94285.12
2017-11-24T02:01:26.125Z,94271.93
2017-11-24T02:03:54.470Z,94263.09
2017-11-24T02:06:22.799Z,94257.13
2017-11-24T02:08:51.136Z,94258.13
2017-11-24T02:11:19.513Z,94249.89
2017-11-24T02:13:47.860Z,94235.70
2017-11-24T02:16:16.486Z,94230.19
2017-11-24T02:18:44.830Z,94217.00
2017-11-24T02:21:13.180Z,94219.57
2017-11-24T02:23:41.550Z,94225.89
2017-11-24T02:26:09.882Z,94223.48
2017-11-24T02:28:38.237Z,94222.87
2017-11-24T02:31:06.568Z,94219.77
2017-11-24T02:33:34.923Z,94204.78
2017-11-24T02:36:03.288Z,94210.97
2017-11-24T02:38:31.632Z,94204.51
2017-11-24T02:40:59.972Z,94211.13
2017-11-24T02:43:28.317Z,94210.13
2017-11-24T02:45:56.649Z,94203.26
2017-11-24T02:48:25.120Z,94202.72
2017-11-24T02:50:53.463Z,94191.75
2017-11-24T02:53:21.801Z,94201.37
2017-11-24T02:55:50.150Z,94188.06
2017-11-24T02:58:18.507Z,94181.70
2017-11-24T03:00:46.973Z,94191.75
2017-11-24T03:03:15.323Z,94182.22
2017-11-24T03:05:43.652Z,94174.19
2017-11-24T03:08:12.008Z,94170.06
2017-11-24T03:10:40.468Z,94165.80
2017-11-24T03:13:08.811Z,94169.42
2017-11-24T03:15:37.160Z,94159.08
2017-11-24T03:18:05.511Z,94160.41
2017-11-24T03:20:33.862Z,94155.22
2017-11-24T03:23:02.272Z,94148.03
2017-11-24T03:25:30.612Z,94134.98
2017-11-24T03:27:58.974Z,94133.70
2017-11-24T03:30:27.342Z,94141.45
2017-11-24T03:32:55.708Z,94124.00
2017-11-24T03:35:24.083Z,94124.43
2017-11-24T03:37:52.455Z,94118.83
2017-11-24T03:40:20.801Z,94118.72
2017-11-24T03:42:49.149Z,94111.34
2017-11-24T03:45:17.497Z,94114.84
2017-11-24T03:47:45.848Z,94117.65
2017-11-24T03:50:14.223Z,94115.11
2017-11-24T03:52:42.590Z,94103.59
2017-11-24T03:55:10.936Z,94105.95
2017-11-24T03:57:39.282Z,94104.00
2017-11-24T04:00:30.277Z,94091.33
2017-11-24T04:02:58.659Z,94094.56
2017-11-24T04:05:27.060Z,94083.84
2017-11-24T04:07:55.399Z,94073.22
2017-11-24T04:10:23.760Z,94065.88
2017-11-24T04:12:52.134Z,94051.86
2017-11-24T04:15:20.488Z,94050.92
2017-11-24T04:17:48.840Z,94055.10
2017-11-24T04:20:17.204Z,94067.00
2017-11-24T04:22:45.550Z,94074.20
2017-11-24T04:25:13.941Z,94058.22
2017-11-24T04:27:42.303Z,94056.66
2017-11-24T04:30:10.645Z,94050.71
2017-11-24T04:32:38.994Z,94038.34
2017-11-24T04:35:07.361Z,94035.83
2017-11-24T04:37:35.995Z,94012.19
2017-11-24T04:40:04.348Z,94021.44
2017-11-24T04:42:32.713Z,94022.31
2017-11-24T04:45:01.057Z,94018.95
2017-11-24T04:47:29.402Z,94012.26
2017-11-24T04:49:57.751Z,94014.04
2017-11-24T04:52:26.100Z,94014.09
2017-11-24T04:54:54.566Z,93994.03
2017-11-24T04:57:22.912Z,93987.80
2017-11-24T04:59:51.291Z,93981.22
2017-11-24T05:02:19.634Z,93976.97
2017-11-24T05:04:47.975Z,93975.81
2017-11-24T05:07:16.445Z,93956.91
2017-11-24T05:09:44.791Z,93963.97
2017-11-24T05:12:13.135Z,93976.97
2017-11-24T05:14:41.507Z,93969.29
2017-11-24T05:17:09.855Z,93955.11
2017-11-24T05:19:38.228Z,93967.27
2017-11-24T05:22:06.592Z,93968.77
2017-11-24T05:24:34.945Z,93972.41
2017-11-24T05:27:03.284Z,93934.83
2017-11-24T05:29:31.640Z,93957.37
2017-11-24T05:32:00.047Z,93962.16
2017-11-24T05:34:28.384Z,93979.25
2017-11-24T05:36:56.751Z,93963.17
2017-11-24T05:39:25.095Z,93975.68
2017-11-24T05:41:53.436Z,93958.00
2017-11-24T05:44:21.778Z,93985.88
2017-11-24T05:46:50.127Z,93974.09
2017-11-24T05:49:18.492Z,93968.61
2017-11-24T05:51:46.844Z,93974.98
2017-11-24T05:54:15.184Z,93968.12
2017-11-24T05:56:43.525Z,93974.39
2017-11-24T05:59:11.869Z,93970.48
2017-11-24T06:01:40.243Z,93959.52
2017-11-24T06:04:08.584Z,93958.53
2017-11-24T06:06:36.926Z,93969.95
2017-11-24T06:09:05.263Z,93953.88
2017-11-24T06:11:33.610Z,93959.77
2017-11-24T06:14:01.984Z,93951.61
2017-11-24T06:16:30.316Z,93940.09
2017-11-24T06:18:58.678Z,93933.37
2017-11-24T06:21:27.213Z,93935.91
2017-11-24T06:23:56.293Z,93937.05
2017-11-24T06:26:24.702Z,93938.02
2017-11-24T06:28:53.055Z,93936.11
2017-11-24T06:31:21.393Z,93938.12
2017-11-24T06:33:49.737Z,93930.56
2017-11-24T06:36:18.096Z,93932.60
2017-11-24T06:38:46.465Z,93938.92
2017-11-24T06:41:14.806Z,93938.31
2017-11-24T06:43:43.228Z,93943.20
2017-11-24T06:46:11.577Z,93941.92
2017-11-24T06:48:40.324Z,93942.73
2017-11-24T06:51:08.709Z,93947.66
2017-11-24T06:53:37.049Z,93956.03
2017-11-24T06:56:05.383Z,93941.39
2017-11-24T06:58:33.723Z,93939.30
2017-11-24T07:01:02.067Z,93950.09
2017-11-24T07:03:30.450Z,93941.33
2017-11-24T07:05:58.798Z,93943.83
2017-11-24T07:08:27.164Z,93950.01
2017-11-24T07:10:55.497Z,93940.78
2017-11-24T07:13:23.848Z,93946.08
2017-11-24T07:15:52.213Z,93958.61
2017-11-24T07:18:20.557Z,93949.16
2017-11-24T07:20:48.924Z,93956.19
2017-11-24T07:23:17.275Z,93972.78
2017-11-24T07:25:45.600Z,93972.19
2017-11-24T07:28:13.968Z,93961.45
2017-11-24T07:30:42.309Z,93961.89
2017-11-24T07:33:10.648Z,93978.06
2017-11-24T07:35:38.996Z,93976.19
2017-11-24T07:38:07.335Z,93971.95
2017-11-24T07:40:35.711Z,93959.65
2017-11-24T07:43:04.044Z,93974.84
2017-11-24T07:45:32.391Z,93982.06
2017-11-24T07:48:00.732Z,93993.66
2017-11-24T07:50:29.073Z,94005.02
2017-11-24T07:52:57.452Z,93998.78
2017-11-24T07:55:25.795Z,94005.52
2017-11-24T07:57:54.171Z,93988.66
2017-11-24T08:00:22.511Z,94008.73
2017-11-24T08:02:50.852Z,94014.97
2017-11-24T08:05:19.275Z,94006.61
2017-11-24T08:07:47.614Z,94007.02
2017-11-24T08:10:16.837Z,94016.02
2017-11-24T08:12:45.188Z,94015.27
2017-11-24T08:15:13.534Z,94011.27
2017-11-24T08:17:41.913Z,94014.23
2017-11-24T08:20:10.264Z,94008.26
2017-11-24T08:22:38.609Z,94008.45
2017-11-24T08:25:06.951Z,94007.42
2017-11-24T08:27:35.292Z,94013.34
2017-11-24T08:30:03.685Z,94014.58
2017-11-24T08:32:32.020Z,94005.54
2017-11-24T08:35:00.364Z,94011.00
2017-11-24T08:37:28.712Z,94014.69
2017-11-24T08:39:57.065Z,94019.77
2017-11-24T08:42:25.432Z,94023.21
2017-11-24T08:44:53.774Z,94021.77
2017-11-24T08:47:27.764Z,94023.17
2017-11-24T08:49:56.101Z,94010.36
2017-11-24T08:52:24.436Z,94015.59
2017-11-24T08:54:52.775Z,94017.48
2017-11-24T08:57:21.137Z,94023.20
2017-11-24T08:59:49.515Z,94018.19
2017-11-24T09:02:17.881Z,94015.36
2017-11-24T09:04:46.219Z,94059.11
2017-11-24T09:07:14.577Z,94057.67
2017-11-24T09:09:42.912Z,94062.25
2017-11-24T09:12:11.285Z,94079.06
2017-11-24T09:14:39.631Z,94099.70
2017-11-24T09:17:07.965Z,94110.55
2017-11-24T09:19:36.313Z,94107.59
2017-11-24T09:22:04.651Z,94116.08
2017-11-24T09:24:33.031Z,94131.08
2017-11-24T09:27:01.372Z,94127.19
2017-11-24T09:29:29.712Z,94130.39
2017-11-24T09:31:58.060Z,94139.09
2017-11-24T09:34:26.399Z,94136.00
2017-11-24T09:36:54.772Z,94140.16
2017-11-24T09:39:23.104Z,94131.75
2017-11-24T09:41:51.456Z,94127.77
2017-11-24T09:44:19.794Z,94130.09
2017-11-24T09:46:48.143Z,94134.20
2017-11-24T09:49:16.519Z,94138.25
2017-11-24T09:51:44.864Z,94136.66
2017-11-24T09:54:13.211Z,94141.47
2017-11-24T09:56:41.571Z,94149.96
2017-11-24T09:59:09.912Z,94159.27
2017-11-24T10:01:38.386Z,94149.73
2017-11-24T10:04:06.717Z,94157.08
2017-11-24T10:06:35.053Z,94167.58
2017-11-24T10:09:03.395Z,94172.20
2017-11-24T10:11:31.748Z,94174.36
2017-11-24T10:14:00.224Z,94175.66
2017-11-24T10:16:28.568Z,94174.63
2017-11-24T10:18:56.910Z,94165.28
2017-11-24T10:21:30.729Z,94157.59
2017-11-24T10:23:59.071Z,94159.17
2017-11-24T10:26:27.422Z,94155.66
2017-11-24T10:28:55.784Z,94171.42
2017-11-24T10:31:24.154Z,94177.19
2017-11-24T10:33:52.492Z,94180.18
2017-11-24T10:36:20.835Z,94184.11
2017-11-24T10:38:49.176Z,94184.50
2017-11-24T10:41:17.522Z,94178.83
2017-11-24T10:43:45.904Z,94189.41
2017-11-24T10:46:14.261Z,94184.36
2017-11-24T10:48:42.638Z,94179.09
2017-11-24T10:51:10.987Z,94186.20
2017-11-24T10:53:39.331Z,94183.34
2017-11-24T10:56:07.690Z,94183.30
2017-11-24T10:58:36.027Z,94181.79
2017-11-24T11:01:04.396Z,94190.30
2017-11-24T11:03:32.744Z,94200.28
2017-11-24T11:06:01.095Z,94202.84
2017-11-24T11:08:29.441Z,94210.34
2017-11-24T11:10:57.820Z,94200.26
2017-11-24T11:13:26.170Z,94207.50
2017-11-24T11:15:54.515Z,94206.21
2017-11-24T11:18:22.858Z,94220.80
2017-11-24T11:20:51.215Z,94231.82
2017-11-24T11:23:19.597Z,94225.84
2017-11-24T11:25:47.934Z,94230.39
2017-11-24T11:28:16.276Z,94222.76
2017-11-24T11:30:44.631Z,94222.56
2017-11-24T11:33:12.980Z,94226.75
2017-11-24T11:35:41.364Z,94229.20
2017-11-24T11:38:09.702Z,94231.30
2017-11-24T11:40:38.039Z,94236.59
2017-11-24T11:43:06.386Z,94235.52
2017-11-24T11:45:34.745Z,94229.20
2017-11-24T11:48:03.109Z,94236.33
2017-11-24T11:50:31.460Z,94239.81
2017-11-24T11:52:59.791Z,94227.00
2017-11-24T11:55:28.139Z,94223.89
2017-11-24T11:57:56.480Z,94236.41
2017-11-24T12:00:24.862Z,94232.95
2017-11-24T12:02:53.215Z,94236.02
2017-11-24T12:05:21.556Z,94240.01
2017-11-24T12:07:49.909Z,94240.84
2017-11-24T12:10:18.257Z,94248.18
2017-11-24T12:12:46.642Z,94254.23
2017-11-24T12:15:14.975Z,94252.53
2017-11-24T12:17:43.330Z,94241.44
2017-11-24T12:20:11.677Z,94241.30
2017-11-24T12:22:40.012Z,94250.69
2017-11-24T12:25:08.392Z,94247.04
2017-11-24T12:27:36.737Z,94250.41
2017-11-24T12:30:05.080Z,94248.61
2017-11-24T12:32:33.427Z,94246.14
2017-11-24T12:35:01.789Z,94237.83
2017-11-24T12:37:30.168Z,94245.48
2017-11-24T12:39:58.611Z,94243.05
2017-11-24T12:42:26.958Z,94242.83
2017-11-24T12:44:55.334Z,94249.06
2017-11-24T12:47:23.689Z,94253.52
2017-11-24T12:49:52.053Z,94254.28
2017-11-24T12:52:20.404Z,94255.98
2017-11-24T12:54:48.748Z,94256.78
2017-11-24T12:57:17.128Z,94261.28
2017-11-24T12:59:45.470Z,94264.53
2017-11-24T13:02:13.827Z,94269.96
2017-11-24T13:04:42.163Z,94274.45
2017-11-24T13:07:10.660Z,94274.48
2017-11-24T13:09:39.028Z,94281.97
2017-11-24T13:12:07.384Z,94293.80
2017-11-24T13:14:35.736Z,94288.03
2017-11-24T13:17:04.071Z,94293.27
2017-11-24T13:19:32.412Z,94298.34
2017-11-24T13:22:00.781Z,94298.25
2017-11-24T13:24:29.152Z,94301.44
2017-11-24T13:26:57.491Z,94297.19
2017-11-24T13:29:25.842Z,94297.09
2017-11-24T13:31:54.177Z,94304.97
2017-11-24T13:34:22.823Z,94315.98
2017-11-24T13:36:51.200Z,94322.63
2017-11-24T13:39:19.537Z,94325.43
2017-11-24T13:41:47.887Z,94324.63
2017-11-24T13:44:16.240Z,94322.22
2017-11-24T13:46:45.475Z,94328.81
2017-11-24T13:49:13.948Z,94337.29
2017-11-24T13:51:42.298Z,94341.56
2017-11-24T13:54:10.647Z,94349.95
2017-11-24T13:56:38.983Z,94354.23
2017-11-24T13:59:07.332Z,94355.98
2017-11-24T14:01:35.672Z,94361.31
2017-11-24T14:04:04.045Z,94363.92
2017-11-24T14:06:32.392Z,94364.81
2017-11-24T14:09:00.743Z,94363.86
2017-11-24T14:11:29.080Z,94368.47
2017-11-24T14:13:57.435Z,94375.37
2017-11-24T14:16:25.799Z,94369.98
2017-11-24T14:18:54.143Z,94382.84
2017-11-24T14:21:22.505Z,94384.63
2017-11-24T14:23:50.839Z,94387.33
2017-11-24T14:26:19.180Z,94386.16
2017-11-24T14:28:47.543Z,94378.29
2017-11-24T14:31:15.889Z,94387.88
2017-11-24T14:33:44.224Z,94387.64
2017-11-24T14:36:12.570Z,94390.87
2017-11-24T14:38:41.047Z,94391.87
2017-11-24T14:41:09.388Z,94390.22
2017-11-24T14:43:37.730Z,94390.75
2017-11-24T14:46:06.092Z,94384.04
2017-11-24T14:48:34.466Z,94389.07
2017-11-24T14:51:02.974Z,94395.33
2017-11-24T14:53:31.367Z,94398.10
2017-11-24T14:55:59.700Z,94404.64
2017-11-24T14:58:28.037Z,94412.29
2017-11-24T15:00:56.393Z,94421.85
2017-11-24T15:03:24.853Z,94422.84
2017-11-24T15:05:53.200Z,94423.16
2017-11-24T15:08:21.537Z,94427.33
2017-11-24T15:10:49.872Z,94431.87
2017-11-24T15:13:18.221Z,94438.28
2017-11-24T15:15:46.606Z,94442.59
2017-11-24T15:18:14.944Z,94436.97
2017-11-24T15:20:43.284Z,94435.24
2017-11-24T15:23:11.632Z,94441.83
2017-11-24T15:25:39.980Z,94448.59
2017-11-24T15:28:08.341Z,94444.74
2017-11-24T15:30:36.681Z,94447.67
2017-11-24T15:33:05.016Z,94450.11
2017-11-24T15:35:33.365Z,94452.47
2017-11-24T15:38:01.708Z,94453.27
2017-11-24T15:40:30.076Z,94454.88
2017-11-24T15:42:58.449Z,94465.70
2017-11-24T15:45:26.824Z,94463.75
2017-11-24T15:47:55.164Z,94471.51
2017-11-24T15:50:23.509Z,94471.77
2017-11-24T15:52:51.880Z,94472.50
2017-11-24T15:55:20.224Z,94473.47
2017-11-24T15:57:48.567Z,94469.05
2017-11-24T16:00:16.925Z,94467.70
2017-11-24T16:02:45.279Z,94472.82
2017-11-24T16:05:13.647Z,94462.34
2017-11-24T16:07:42.001Z,94466.91
2017-11-24T16:10:10.350Z,94470.50
2017-11-24T16:12:38.685Z,94475.51
2017-11-24T16:15:07.025Z,94476.20
2017-11-24T16:17:35.403Z,94480.54
2017-11-24T16:20:03.744Z,94480.83
2017-11-24T16:22:32.138Z,94483.23
2017-11-24T16:25:00.483Z,94484.48
2017-11-24T16:27:28.832Z,94482.34
2017-11-24T16:29:57.306Z,94481.33
2017-11-24T16:32:25.685Z,94488.98
2017-11-24T16:34:54.104Z,94479.66
2017-11-24T16:37:22.464Z,94483.80
2017-11-24T16:39:50.803Z,94473.72
2017-11-24T16:42:19.471Z,94478.38
2017-11-24T16:44:48.075Z,94470.44
2017-11-24T16:47:16.492Z,94479.32
2017-11-24T16:49:44.845Z,94475.53
2017-11-24T16:52:13.204Z,94464.53
2017-11-24T16:54:41.575Z,94465.77
2017-11-24T16:57:09.932Z,94466.50
2017-11-24T16:59:38.284Z,94459.18
2017-11-24T17:02:07.487Z,94450.50
2017-11-24T17:04:35.828Z,94453.30
2017-11-24T17:07:04.200Z,94448.31
2017-11-24T17:09:32.558Z,94447.02
2017-11-24T17:12:00.903Z,94446.69
2017-11-24T17:14:29.252Z,94443.69
2017-11-24T17:16:57.617Z,94446.45
2017-11-24T17:19:26.071Z,94448.16
2017-11-24T17:21:54.416Z,94457.90
2017-11-24T17:24:22.751Z,94465.52
2017-11-24T17:26:51.098Z,94461.02
2017-11-24T17:29:19.437Z,94462.09
2017-11-24T17:31:47.832Z,94471.02
2017-11-24T17:34:16.181Z,94474.29
2017-11-24T17:36:44.533Z,94483.56
2017-11-24T17:39:12.880Z,94487.11
2017-11-24T17:41:41.213Z,94488.86
2017-11-24T17:44:09.583Z,94486.56
2017-11-24T17:46:37.921Z,94485.07
2017-11-24T17:49:06.273Z,94485.91
2017-11-24T17:51:34.618Z,94486.97
2017-11-24T17:54:02.970Z,94489.28
2017-11-24T17:56:31.332Z,94486.86
2017-11-24T17:58:59.664Z,94487.73
2017-11-24T18:01:28.000Z,94479.08
2017-11-24T18:03:56.345Z,94482.49
2017-11-24T18:06:24.688Z,94482.97
2017-11-24T18:08:53.039Z,94482.51
2017-11-24T18:11:21.373Z,94484.95
2017-11-24T18:13:49.711Z,94489.00
2017-11-24T18:16:18.065Z,94491.19
2017-11-24T18:18:46.404Z,94491.78
2017-11-24T18:21:14.774Z,94478.73
2017-11-24T18:23:43.118Z,94479.66
2017-11-24T18:26:11.474Z,94472.21
2017-11-24T18:28:39.807Z,94471.33
2017-11-24T18:31:08.157Z,94473.06
2017-11-24T18:33:36.622Z,94470.03
2017-11-24T18:36:04.960Z,94479.27
2017-11-24T18:38:33.304Z,94474.82
2017-11-24T18:41:01.645Z,94475.14
2017-11-24T18:43:29.984Z,94475.29
2017-11-24T18:45:58.468Z,94473.42
2017-11-24T18:48:26.813Z,94474.44
2017-11-24T18:50:55.153Z,94481.45
2017-11-24T18:53:23.492Z,94491.04
2017-11-24T18:55:51.832Z,94490.44
2017-11-24T18:58:20.205Z,94495.45
2017-11-24T19:00:48.554Z,94500.95
2017-11-24T19:03:16.923Z,94502.49
2017-11-24T19:05:45.271Z,94498.62
2017-11-24T19:08:13.625Z,94502.02
2017-11-24T19:10:42.100Z,94507.03
2017-11-24T19:13:10.444Z,94499.66
2017-11-24T19:15:38.791Z,94508.92
2017-11-24T19:18:07.130Z,94511.66
2017-11-24T19:20:35.466Z,94507.16
2017-11-24T19:23:03.834Z,94515.97
2017-11-24T19:25:32.170Z,94509.05
2017-11-24T19:28:00.524Z,94495.46
2017-11-24T19:30:28.866Z,94508.84
2017-11-24T19:32:57.225Z,94510.27
2017-11-24T19:35:25.592Z,94513.59
2017-11-24T19:37:53.936Z,94512.78
2017-11-24T19:40:23.073Z,94510.59
2017-11-24T19:42:51.403Z,94502.65
2017-11-24T19:45:19.746Z,94506.28
2017-11-24T19:47:48.244Z,94510.12
2017-11-24T19:50:16.597Z,94515.02
2017-11-24T19:52:44.939Z,94512.19
2017-11-24T19:55:13.275Z,94521.00
2017-11-24T19:57:41.628Z,94515.34
2017-11-24T20:00:10.019Z,94511.36
2017-11-24T20:02:38.351Z,94511.35
2017-11-24T20:05:06.697Z,94504.39
2017-11-24T20:07:35.046Z,94508.42
2017-11-24T20:10:03.410Z,94505.55
2017-11-24T20:12:31.779Z,94508.64
2017-11-24T20:15:00.132Z,94508.98
2017-11-24T20:17:28.471Z,94509.74
2017-11-24T20:19:56.828Z,94509.16
2017-11-24T20:22:25.327Z,94515.08
2017-11-24T20:24:53.720Z,94510.39
2017-11-24T20:27:22.071Z,94507.14
2017-11-24T20:29:50.421Z,94504.17
2017-11-24T20:32:18.781Z,94505.31
2017-11-24T20:34:47.122Z,94502.78
2017-11-24T20:37:15.510Z,94500.59
2017-11-24T20:39:43.866Z,94502.52
2017-11-24T20:42:12.337Z,94505.15
2017-11-24T20:44:40.675Z,94507.84
2017-11-24T20:47:09.022Z,94503.80
2017-11-24T20:49:37.381Z,94497.84
2017-11-24T20:52:05.732Z,94494.08
2017-11-24T20:54:34.104Z,94486.33
2017-11-24T20:57:02.444Z,94480.73
2017-11-24T20:59:30.789Z,94488.78
2017-11-24T21:01:59.136Z,94494.05
2017-11-24T21:04:27.502Z,94485.12
2017-11-24T21:06:55.859Z,94490.44
2017-11-24T21:09:24.205Z,94482.86
2017-11-24T21:11:52.571Z,94490.63
2017-11-24T21:14:20.908Z,94485.25
2017-11-24T21:16:49.282Z,94480.89
2017-11-24T21:19:17.621Z,94481.26
2017-11-24T21:21:45.972Z,94487.36
2017-11-24T21:24:14.332Z,94489.04
2017-11-24T21:26:42.683Z,94489.22
2017-11-24T21:29:11.026Z,94485.24
2017-11-24T21:31:39.367Z,94478.42
2017-11-24T21:34:07.703Z,94471.80
2017-11-24T21:36:36.073Z,94477.20
2017-11-24T21:39:04.412Z,94482.31
2017-11-24T21:41:32.747Z,94493.27
2017-11-24T21:44:01.091Z,94486.09
2017-11-24T21:46:29.440Z,94485.00
2017-11-24T21:48:57.847Z,94472.81
2017-11-24T21:51:26.200Z,94474.63
2017-11-24T21:53:54.541Z,94477.06
2017-11-24T21:56:22.880Z,94481.03
2017-11-24T21:58:51.226Z,94482.67
2017-11-24T22:01:19.616Z,94471.81
2017-11-24T22:03:48.009Z,94468.32
2017-11-24T22:06:16.344Z,94460.23
2017-11-24T22:08:44.684Z,94462.31
2017-11-24T22:11:13.024Z,94466.27
2017-11-24T22:13:41.400Z,94464.48
2017-11-24T22:16:09.740Z,94470.23
2017-11-24T22:18:38.078Z,94457.74
2017-11-24T22:21:06.428Z,94452.42
2017-11-24T22:23:34.901Z,94453.28
2017-11-24T22:26:03.424Z,94456.27
2017-11-24T22:28:31.782Z,94444.83
2017-11-24T22:31:00.131Z,94440.99
2017-11-24T22:33:28.456Z,94437.81
2017-11-24T22:35:56.792Z,94441.78
2017-11-24T22:38:25.262Z,94449.20
2017-11-24T22:40:53.601Z,94446.46
2017-11-24T22:43:21.944Z,94443.91
2017-11-24T22:45:50.281Z,94436.98
2017-11-24T22:48:18.623Z,94432.39
2017-11-24T22:50:46.987Z,94437.91
2017-11-24T22:53:15.332Z,94431.69
2017-11-24T22:55:43.673Z,94419.75
2017-11-24T22:58:12.016Z,94422.65
2017-11-24T23:00:40.352Z,94421.91
2017-11-24T23:03:08.811Z,94409.55
2017-11-24T23:05:37.159Z,94406.73
2017-11-24T23:08:05.509Z,94405.72
2017-11-24T23:10:33.850Z,94414.09
2017-11-24T23:13:02.192Z,94405.24
2017-11-24T23:15:30.660Z,94402.16
2017-11-24T23:17:59.001Z,94402.05
2017-11-24T23:20:27.343Z,94405.18
2017-11-24T23:22:55.684Z,94404.76
2017-11-24T23:25:24.025Z,94396.86
2017-11-24T23:27:52.709Z,94394.02
2017-11-24T23:30:21.111Z,94391.09
2017-11-24T23:32:49.444Z,94387.29
2017-11-24T23:35:17.777Z,94388.44
2017-11-24T23:37:46.122Z,94382.45
2017-11-24T23:40:14.535Z,94379.56
2017-11-24T23:42:42.886Z,94372.89
2017-11-24T23:45:11.218Z,94371.09
2017-11-24T23:47:39.551Z,94366.97
2017-11-24T23:50:07.884Z,94357.58
2017-11-24T23:52:36.249Z,94358.70
2017-11-24T23:55:04.590Z,94354.09
2017-11-24T23:57:32.924Z,94354.05
